sensor_id;sensor_type;location;lat;lon;timestamp;pressure;altitude;pressure_sealevel;temperature;humidity
42169;BME280;27838;43.858;25.974;2023-06-14T00:02:19;100768.03;;;22.20;52.40
42169;BME280;27838;43.858;25.974;2023-06-14T00:04:45;100770.75;;;22.19;52.35
42169;BME280;27838;43.858;25.974;2023-06-14T00:07:13;100778.19;;;22.12;52.60
42169;BME280;27838;43.858;25.974;2023-06-14T00:09:41;100761.81;;;22.02;52.62
42169;BME280;27838;43.858;25.974;2023-06-14T00:12:08;100768.22;;;21.98;53.06
42169;BME280;27838;43.858;25.974;2023-06-14T00:14:35;100765.81;;;21.92;53.30
42169;BME280;27838;43.858;25.974;2023-06-14T00:17:01;100766.84;;;21.90;53.28
42169;BME280;27838;43.858;25.974;2023-06-14T00:19:28;100767.84;;;21.87;53.63
42169;BME280;27838;43.858;25.974;2023-06-14T00:21:55;100768.84;;;21.84;53.88
42169;BME280;27838;43.858;25.974;2023-06-14T00:24:22;100768.19;;;21.79;53.86
42169;BME280;27838;43.858;25.974;2023-06-14T00:26:49;100759.53;;;21.76;54.11
42169;BME280;27838;43.858;25.974;2023-06-14T00:29:15;100751.63;;;21.74;54.30
42169;BME280;27838;43.858;25.974;2023-06-14T00:31:42;100757.19;;;21.68;54.40
42169;BME280;27838;43.858;25.974;2023-06-14T00:34:08;100749.31;;;21.66;54.29
42169;BME280;27838;43.858;25.974;2023-06-14T00:36:35;100753.84;;;21.64;54.33
42169;BME280;27838;43.858;25.974;2023-06-14T00:39:01;100748.41;;;21.67;54.13
42169;BME280;27838;43.858;25.974;2023-06-14T00:41:28;100756.22;;;21.71;54.37
42169;BME280;27838;43.858;25.974;2023-06-14T00:43:55;100755.34;;;21.70;54.09
42169;BME280;27838;43.858;25.974;2023-06-14T00:46:22;100747.31;;;21.72;54.16
42169;BME280;27838;43.858;25.974;2023-06-14T00:48:48;100743.88;;;21.69;54.36
42169;BME280;27838;43.858;25.974;2023-06-14T00:51:15;100736.69;;;21.72;54.15
42169;BME280;27838;43.858;25.974;2023-06-14T00:53:42;100727.97;;;21.69;54.21
42169;BME280;27838;43.858;25.974;2023-06-14T00:56:13;100732.53;;;21.66;54.47
42169;BME280;27838;43.858;25.974;2023-06-14T00:58:41;100729.13;;;21.64;54.37
42169;BME280;27838;43.858;25.974;2023-06-14T01:01:08;100740.72;;;21.61;54.36
42169;BME280;27838;43.858;25.974;2023-06-14T01:03:34;100745.28;;;21.58;54.61
42169;BME280;27838;43.858;25.974;2023-06-14T01:06:19;100743.06;;;21.48;54.77
42169;BME280;27838;43.858;25.974;2023-06-14T01:09:03;100735.19;;;21.47;54.86
42169;BME280;27838;43.858;25.974;2023-06-14T01:11:40;100739.66;;;21.45;54.82
42169;BME280;27838;43.858;25.974;2023-06-14T01:14:12;100742.31;;;21.45;54.98
42169;BME280;27838;43.858;25.974;2023-06-14T01:16:41;100744.13;;;21.44;55.05
42169;BME280;27838;43.858;25.974;2023-06-14T01:19:10;100741.47;;;21.44;55.23
42169;BME280;27838;43.858;25.974;2023-06-14T01:21:39;100736.13;;;21.46;54.79
42169;BME280;27838;43.858;25.974;2023-06-14T01:24:08;100741.06;;;21.54;54.42
42169;BME280;27838;43.858;25.974;2023-06-14T01:26:36;100740.28;;;21.52;54.73
42169;BME280;27838;43.858;25.974;2023-06-14T01:29:05;100736.13;;;21.46;54.67
42169;BME280;27838;43.858;25.974;2023-06-14T01:31:32;100739.56;;;21.48;54.43
42169;BME280;27838;43.858;25.974;2023-06-14T01:34:07;100742.31;;;21.45;54.98
42169;BME280;27838;43.858;25.974;2023-06-14T01:36:36;100744.19;;;21.43;54.64
42169;BME280;27838;43.858;25.974;2023-06-14T01:39:05;100747.63;;;21.45;54.65
42169;BME280;27838;43.858;25.974;2023-06-14T01:41:33;100750.03;;;21.51;54.52
42169;BME280;27838;43.858;25.974;2023-06-14T01:44:01;100743.84;;;21.50;54.70
42169;BME280;27838;43.858;25.974;2023-06-14T01:46:28;100756.06;;;21.55;54.42
42169;BME280;27838;43.858;25.974;2023-06-14T01:48:54;100757.50;;;21.62;53.81
42169;BME280;27838;43.858;25.974;2023-06-14T01:51:21;100752.13;;;21.63;54.14
42169;BME280;27838;43.858;25.974;2023-06-14T01:53:47;100755.56;;;21.65;53.69
42169;BME280;27838;43.858;25.974;2023-06-14T01:56:14;100754.63;;;21.66;53.71
42169;BME280;27838;43.858;25.974;2023-06-14T01:58:41;100751.91;;;21.68;53.42
42169;BME280;27838;43.858;25.974;2023-06-14T02:01:08;100748.41;;;21.67;53.58
42169;BME280;27838;43.858;25.974;2023-06-14T02:03:36;100750.25;;;21.65;53.78
42169;BME280;27838;43.858;25.974;2023-06-14T02:06:04;100758.22;;;21.65;53.49
42169;BME280;27838;43.858;25.974;2023-06-14T02:08:30;100753.84;;;21.64;53.77
42169;BME280;27838;43.858;25.974;2023-06-14T02:10:57;100758.22;;;21.65;53.60
42169;BME280;27838;43.858;25.974;2023-06-14T02:13:23;100765.22;;;21.66;53.37
42169;BME280;27838;43.858;25.974;2023-06-14T02:15:50;100762.56;;;21.66;53.35
42169;BME280;27838;43.858;25.974;2023-06-14T02:18:20;100762.56;;;21.66;53.41
42169;BME280;27838;43.858;25.974;2023-06-14T02:20:47;100765.66;;;21.57;53.54
42169;BME280;27838;43.858;25.974;2023-06-14T02:23:13;100771.81;;;21.58;53.31
42169;BME280;27838;43.858;25.974;2023-06-14T02:25:40;100769.22;;;21.56;53.68
42169;BME280;27838;43.858;25.974;2023-06-14T02:28:08;100767.66;;;21.52;53.62
42169;BME280;27838;43.858;25.974;2023-06-14T02:30:34;100769.75;;;21.44;53.41
42169;BME280;27838;43.858;25.974;2023-06-14T02:33:01;100771.47;;;21.45;53.61
42169;BME280;27838;43.858;25.974;2023-06-14T02:35:30;100785.66;;;21.44;53.79
42169;BME280;27838;43.858;25.974;2023-06-14T02:37:56;100783.16;;;21.41;53.63
42169;BME280;27838;43.858;25.974;2023-06-14T02:40:23;100785.00;;;21.39;53.84
42169;BME280;27838;43.858;25.974;2023-06-14T02:42:50;100789.50;;;21.37;54.01
42169;BME280;27838;43.858;25.974;2023-06-14T02:45:17;100803.66;;;21.37;54.11
42169;BME280;27838;43.858;25.974;2023-06-14T02:47:45;100798.13;;;21.42;53.94
42169;BME280;27838;43.858;25.974;2023-06-14T02:50:11;100796.09;;;21.48;53.70
42169;BME280;27838;43.858;25.974;2023-06-14T02:52:38;100798.81;;;21.47;54.05
42169;BME280;27838;43.858;25.974;2023-06-14T02:55:07;100800.66;;;21.45;53.91
42169;BME280;27838;43.858;25.974;2023-06-14T02:57:34;100805.16;;;21.43;53.93
42169;BME280;27838;43.858;25.974;2023-06-14T03:00:01;100796.47;;;21.39;53.89
42169;BME280;27838;43.858;25.974;2023-06-14T03:02:27;100799.13;;;21.39;54.19
42169;BME280;27838;43.858;25.974;2023-06-14T03:04:54;100799.97;;;21.40;53.79
42169;BME280;27838;43.858;25.974;2023-06-14T03:07:27;100801.78;;;21.39;54.03
42169;BME280;27838;43.858;25.974;2023-06-14T03:09:54;100804.63;;;21.35;53.80
42169;BME280;27838;43.858;25.974;2023-06-14T03:12:21;100798.66;;;21.29;54.13
42169;BME280;27838;43.858;25.974;2023-06-14T03:14:48;100812.72;;;21.31;53.85
42169;BME280;27838;43.858;25.974;2023-06-14T03:17:16;100818.00;;;21.31;53.89
42169;BME280;27838;43.858;25.974;2023-06-14T03:19:44;100808.41;;;21.29;53.94
42169;BME280;27838;43.858;25.974;2023-06-14T03:22:11;100820.81;;;21.28;54.11
42169;BME280;27838;43.858;25.974;2023-06-14T03:24:38;100825.28;;;21.26;54.29
42169;BME280;27838;43.858;25.974;2023-06-14T03:27:05;100821.97;;;21.21;54.49
42169;BME280;27838;43.858;25.974;2023-06-14T03:29:31;100828.09;;;21.23;54.47
42169;BME280;27838;43.858;25.974;2023-06-14T03:32:01;100831.47;;;21.27;54.24
42169;BME280;27838;43.858;25.974;2023-06-14T03:34:28;100828.03;;;21.25;54.37
42169;BME280;27838;43.858;25.974;2023-06-14T03:36:55;100840.28;;;21.27;54.56
42169;BME280;27838;43.858;25.974;2023-06-14T03:39:22;100840.09;;;21.32;54.18
42169;BME280;27838;43.858;25.974;2023-06-14T03:41:48;100834.63;;;21.35;53.93
42169;BME280;27838;43.858;25.974;2023-06-14T03:44:17;100833.84;;;21.33;54.28
42169;BME280;27838;43.858;25.974;2023-06-14T03:46:44;100836.84;;;21.25;54.31
42169;BME280;27838;43.858;25.974;2023-06-14T03:49:12;100848.31;;;21.26;54.49
42169;BME280;27838;43.858;25.974;2023-06-14T03:51:38;100838.38;;;21.31;54.54
42169;BME280;27838;43.858;25.974;2023-06-14T03:54:06;100833.00;;;21.33;54.18
42169;BME280;27838;43.858;25.974;2023-06-14T03:56:32;100837.28;;;21.35;54.35
42169;BME280;27838;43.858;25.974;2023-06-14T03:58:59;100837.28;;;21.35;54.37
42169;BME280;27838;43.858;25.974;2023-06-14T04:01:26;100834.38;;;21.41;54.33
42169;BME280;27838;43.858;25.974;2023-06-14T04:03:55;100837.81;;;21.43;54.02
42169;BME280;27838;43.858;25.974;2023-06-14T04:06:22;100843.03;;;21.46;53.85
42169;BME280;27838;43.858;25.974;2023-06-14T04:08:51;100842.97;;;21.48;54.04
42169;BME280;27838;43.858;25.974;2023-06-14T04:11:18;100826.28;;;21.46;53.92
42169;BME280;27838;43.858;25.974;2023-06-14T04:13:45;100843.75;;;21.50;54.03
42169;BME280;27838;43.858;25.974;2023-06-14T04:16:12;100843.81;;;21.48;53.74
42169;BME280;27838;43.858;25.974;2023-06-14T04:18:39;100847.72;;;21.40;53.93
42169;BME280;27838;43.858;25.974;2023-06-14T04:21:05;100854.44;;;21.48;53.89
42169;BME280;27838;43.858;25.974;2023-06-14T04:23:33;100851.44;;;21.56;53.69
42169;BME280;27838;43.858;25.974;2023-06-14T04:26:00;100858.34;;;21.60;53.63
42169;BME280;27838;43.858;25.974;2023-06-14T04:28:27;100855.56;;;21.63;53.56
42169;BME280;27838;43.858;25.974;2023-06-14T04:30:55;100860.88;;;21.63;53.46
42169;BME280;27838;43.858;25.974;2023-06-14T04:33:22;100856.22;;;21.68;53.51
42169;BME280;27838;43.858;25.974;2023-06-14T04:35:50;100856.84;;;21.74;53.46
42169;BME280;27838;43.858;25.974;2023-06-14T04:38:19;100859.50;;;21.74;53.34
42169;BME280;27838;43.858;25.974;2023-06-14T04:40:50;100858.53;;;21.76;53.03
42169;BME280;27838;43.858;25.974;2023-06-14T04:43:18;100856.53;;;21.81;52.99
42169;BME280;27838;43.858;25.974;2023-06-14T04:45:52;100868.59;;;21.88;53.18
42169;BME280;27838;43.858;25.974;2023-06-14T04:48:21;100865.16;;;21.86;53.26
42169;BME280;27838;43.858;25.974;2023-06-14T04:50:48;100870.97;;;21.95;53.44
42169;BME280;27838;43.858;25.974;2023-06-14T04:53:18;100862.84;;;21.98;53.15
42169;BME280;27838;43.858;25.974;2023-06-14T04:55:46;100860.66;;;22.08;53.10
42169;BME280;27838;43.858;25.974;2023-06-14T04:58:13;100869.41;;;22.10;52.87
42169;BME280;27838;43.858;25.974;2023-06-14T05:00:40;100869.41;;;22.10;52.77
42169;BME280;27838;43.858;25.974;2023-06-14T05:03:07;100874.84;;;22.06;52.61
42169;BME280;27838;43.858;25.974;2023-06-14T05:05:34;100865.31;;;22.02;52.77
42169;BME280;27838;43.858;25.974;2023-06-14T05:08:00;100875.00;;;22.03;52.56
42169;BME280;27838;43.858;25.974;2023-06-14T05:10:27;100873.94;;;22.08;52.62
42169;BME280;27838;43.858;25.974;2023-06-14T05:12:53;100887.84;;;22.13;52.59
42169;BME280;27838;43.858;25.974;2023-06-14T05:15:20;100865.78;;;22.12;52.76
42169;BME280;27838;43.858;25.974;2023-06-14T05:17:50;100875.72;;;22.26;52.92
42169;BME280;27838;43.858;25.974;2023-06-14T05:20:21;100854.66;;;22.23;52.66
42169;BME280;27838;43.858;25.974;2023-06-14T05:22:50;100872.63;;;22.37;52.31
42169;BME280;27838;43.858;25.974;2023-06-14T05:25:19;100881.72;;;22.31;52.14
42169;BME280;27838;43.858;25.974;2023-06-14T05:27:46;100873.31;;;22.21;52.42
42169;BME280;27838;43.858;25.974;2023-06-14T05:30:13;100882.13;;;22.22;52.67
42169;BME280;27838;43.858;25.974;2023-06-14T05:32:40;100878.03;;;22.15;53.10
42169;BME280;27838;43.858;25.974;2023-06-14T05:35:07;100876.94;;;22.19;52.84
42169;BME280;27838;43.858;25.974;2023-06-14T05:37:33;100875.81;;;22.24;52.80
42169;BME280;27838;43.858;25.974;2023-06-14T05:40:00;100884.22;;;22.34;52.54
42169;BME280;27838;43.858;25.974;2023-06-14T05:42:29;100883.72;;;22.45;52.29
42169;BME280;27838;43.858;25.974;2023-06-14T05:44:55;100893.28;;;22.49;52.26
42169;BME280;27838;43.858;25.974;2023-06-14T05:47:22;100890.13;;;22.60;51.94
42169;BME280;27838;43.858;25.974;2023-06-14T05:49:49;100892.41;;;22.68;51.85
42169;BME280;27838;43.858;25.974;2023-06-14T05:52:15;100892.97;;;22.74;51.85
42169;BME280;27838;43.858;25.974;2023-06-14T05:54:42;100893.91;;;22.73;51.79
42169;BME280;27838;43.858;25.974;2023-06-14T05:57:08;100892.13;;;22.74;51.79
42169;BME280;27838;43.858;25.974;2023-06-14T05:59:35;100893.09;;;22.71;52.03
42169;BME280;27838;43.858;25.974;2023-06-14T06:02:02;100890.03;;;22.61;51.99
42169;BME280;27838;43.858;25.974;2023-06-14T06:04:28;100902.03;;;22.70;52.18
42169;BME280;27838;43.858;25.974;2023-06-14T06:06:56;100907.91;;;22.77;52.21
42169;BME280;27838;43.858;25.974;2023-06-14T06:09:22;100900.34;;;22.87;52.21
42169;BME280;27838;43.858;25.974;2023-06-14T06:11:49;100900.13;;;22.91;52.25
42169;BME280;27838;43.858;25.974;2023-06-14T06:14:15;100892.94;;;22.93;51.89
42169;BME280;27838;43.858;25.974;2023-06-14T06:16:42;100901.47;;;23.00;52.01
42169;BME280;27838;43.858;25.974;2023-06-14T06:19:08;100897.59;;;23.07;51.85
42169;BME280;27838;43.858;25.974;2023-06-14T06:21:35;100895.59;;;23.12;51.91
42169;BME280;27838;43.858;25.974;2023-06-14T06:24:02;100893.00;;;23.11;52.04
42169;BME280;27838;43.858;25.974;2023-06-14T06:26:31;100899.94;;;23.13;52.02
42169;BME280;27838;43.858;25.974;2023-06-14T06:28:58;100901.69;;;23.14;51.82
42169;BME280;27838;43.858;25.974;2023-06-14T06:31:24;100898.88;;;23.17;52.00
42169;BME280;27838;43.858;25.974;2023-06-14T06:33:53;100901.53;;;23.17;51.84
42169;BME280;27838;43.858;25.974;2023-06-14T06:36:20;100896.06;;;23.21;52.05
42169;BME280;27838;43.858;25.974;2023-06-14T06:38:48;100905.38;;;23.29;52.21
42169;BME280;27838;43.858;25.974;2023-06-14T06:41:14;100905.91;;;23.36;52.29
42169;BME280;27838;43.858;25.974;2023-06-14T06:43:41;100905.69;;;23.41;52.01
42169;BME280;27838;43.858;25.974;2023-06-14T06:46:07;100897.84;;;23.37;52.10
42169;BME280;27838;43.858;25.974;2023-06-14T06:48:34;100897.41;;;23.47;52.35
42169;BME280;27838;43.858;25.974;2023-06-14T06:51:01;100901.06;;;23.62;51.95
42169;BME280;27838;43.858;25.974;2023-06-14T06:53:27;100895.44;;;23.68;51.45
42169;BME280;27838;43.858;25.974;2023-06-14T06:55:54;100897.53;;;23.79;51.15
42169;BME280;27838;43.858;25.974;2023-06-14T06:58:20;100897.75;;;23.91;50.87
42169;BME280;27838;43.858;25.974;2023-06-14T07:00:47;100902.44;;;24.04;50.44
42169;BME280;27838;43.858;25.974;2023-06-14T07:03:14;100900.69;;;24.20;50.25
42169;BME280;27838;43.858;25.974;2023-06-14T07:05:40;100897.34;;;24.33;50.23
42169;BME280;27838;43.858;25.974;2023-06-14T07:08:07;100897.75;;;24.41;49.54
42169;BME280;27838;43.858;25.974;2023-06-14T07:10:33;100896.81;;;24.42;49.30
42169;BME280;27838;43.858;25.974;2023-06-14T07:13:00;100900.50;;;24.39;49.29
42169;BME280;27838;43.858;25.974;2023-06-14T07:15:26;100899.94;;;24.34;49.28
42169;BME280;27838;43.858;25.974;2023-06-14T07:17:53;100901.53;;;24.37;49.42
42169;BME280;27838;43.858;25.974;2023-06-14T07:20:25;100889.59;;;24.44;49.17
42169;BME280;27838;43.858;25.974;2023-06-14T07:22:51;100897.91;;;24.55;48.92
42169;BME280;27838;43.858;25.974;2023-06-14T07:25:18;100897.47;;;24.63;48.30
42169;BME280;27838;43.858;25.974;2023-06-14T07:27:46;100892.38;;;24.74;48.36
42169;BME280;27838;43.858;25.974;2023-06-14T07:30:12;100892.03;;;24.80;48.32
42169;BME280;27838;43.858;25.974;2023-06-14T07:32:39;100886.53;;;24.83;47.73
42169;BME280;27838;43.858;25.974;2023-06-14T07:35:06;100891.59;;;24.88;47.93
42169;BME280;27838;43.858;25.974;2023-06-14T07:37:32;100888.75;;;24.91;48.08
42169;BME280;27838;43.858;25.974;2023-06-14T07:40:00;100886.34;;;25.02;47.30
42169;BME280;27838;43.858;25.974;2023-06-14T07:42:28;100884.16;;;25.09;47.29
42169;BME280;27838;43.858;25.974;2023-06-14T07:44:55;100882.66;;;25.19;47.42
42169;BME280;27838;43.858;25.974;2023-06-14T07:47:21;100884.72;;;25.30;46.57
42169;BME280;27838;43.858;25.974;2023-06-14T07:49:48;100886.97;;;25.38;47.05
42169;BME280;27838;43.858;25.974;2023-06-14T07:52:14;100871.81;;;25.38;47.67
42169;BME280;27838;43.858;25.974;2023-06-14T07:54:41;100879.03;;;25.36;47.50
42169;BME280;27838;43.858;25.974;2023-06-14T07:57:07;100879.88;;;25.37;48.38
42169;BME280;27838;43.858;25.974;2023-06-14T07:59:34;100878.69;;;25.42;47.72
42169;BME280;27838;43.858;25.974;2023-06-14T08:02:01;100886.91;;;25.54;47.93
42169;BME280;27838;43.858;25.974;2023-06-14T08:04:27;100873.28;;;25.58;47.77
42169;BME280;27838;43.858;25.974;2023-06-14T08:06:54;100881.22;;;25.74;47.75
42169;BME280;27838;43.858;25.974;2023-06-14T08:09:21;100881.31;;;25.73;46.05
42169;BME280;27838;43.858;25.974;2023-06-14T08:11:48;100877.38;;;25.64;46.08
42169;BME280;27838;43.858;25.974;2023-06-14T08:14:14;100889.38;;;25.57;46.27
42169;BME280;27838;43.858;25.974;2023-06-14T08:16:41;100890.50;;;25.53;46.36
42169;BME280;27838;43.858;25.974;2023-06-14T08:19:07;100882.88;;;25.47;46.10
42169;BME280;27838;43.858;25.974;2023-06-14T08:21:34;100891.38;;;25.53;46.21
42169;BME280;27838;43.858;25.974;2023-06-14T08:24:02;100883.06;;;25.58;46.67
42169;BME280;27838;43.858;25.974;2023-06-14T08:26:29;100869.66;;;25.59;46.71
42169;BME280;27838;43.858;25.974;2023-06-14T08:28:57;100875.28;;;25.69;45.97
42169;BME280;27838;43.858;25.974;2023-06-14T08:31:24;100880.72;;;25.82;45.55
42169;BME280;27838;43.858;25.974;2023-06-14T08:33:50;100875.69;;;25.92;45.58
42169;BME280;27838;43.858;25.974;2023-06-14T08:36:17;100869.63;;;26.04;45.83
42169;BME280;27838;43.858;25.974;2023-06-14T08:38:43;100871.00;;;26.24;44.54
42169;BME280;27838;43.858;25.974;2023-06-14T08:41:11;100867.00;;;26.31;43.71
42169;BME280;27838;43.858;25.974;2023-06-14T08:43:38;100861.19;;;26.25;43.80
42169;BME280;27838;43.858;25.974;2023-06-14T08:46:06;100865.28;;;26.30;43.67
42169;BME280;27838;43.858;25.974;2023-06-14T08:48:34;100857.38;;;26.29;43.59
42169;BME280;27838;43.858;25.974;2023-06-14T08:51:01;100866.31;;;26.42;43.26
42169;BME280;27838;43.858;25.974;2023-06-14T08:53:30;100873.94;;;26.48;42.71
42169;BME280;27838;43.858;25.974;2023-06-14T08:55:58;100869.25;;;26.52;42.15
42169;BME280;27838;43.858;25.974;2023-06-14T08:58:29;100864.56;;;26.55;42.85
42169;BME280;27838;43.858;25.974;2023-06-14T09:00:57;100862.53;;;26.59;42.33
42169;BME280;27838;43.858;25.974;2023-06-14T09:03:24;100863.03;;;26.66;42.36
42169;BME280;27838;43.858;25.974;2023-06-14T09:05:56;100862.50;;;26.73;41.91
42169;BME280;27838;43.858;25.974;2023-06-14T09:08:25;100866.81;;;26.76;41.94
42169;BME280;27838;43.858;25.974;2023-06-14T09:10:51;100861.47;;;26.76;41.25
42169;BME280;27838;43.858;25.974;2023-06-14T09:13:18;100857.63;;;26.80;40.69
42169;BME280;27838;43.858;25.974;2023-06-14T09:15:44;100866.56;;;26.93;39.28
42169;BME280;27838;43.858;25.974;2023-06-14T09:18:11;100863.69;;;26.97;38.71
42169;BME280;27838;43.858;25.974;2023-06-14T09:20:37;100866.81;;;27.03;39.08
42169;BME280;27838;43.858;25.974;2023-06-14T09:23:04;100872.81;;;27.07;40.11
42169;BME280;27838;43.858;25.974;2023-06-14T09:25:32;100872.94;;;27.18;38.83
42169;BME280;27838;43.858;25.974;2023-06-14T09:27:59;100864.22;;;27.29;39.03
42169;BME280;27838;43.858;25.974;2023-06-14T09:30:25;100867.66;;;27.44;38.88
42169;BME280;27838;43.858;25.974;2023-06-14T09:32:52;100866.06;;;27.54;38.87
42169;BME280;27838;43.858;25.974;2023-06-14T09:35:20;100856.66;;;27.61;38.21
42169;BME280;27838;43.858;25.974;2023-06-14T09:37:47;100864.34;;;27.66;38.49
42169;BME280;27838;43.858;25.974;2023-06-14T09:40:20;100864.03;;;27.71;38.81
42169;BME280;27838;43.858;25.974;2023-06-14T09:42:47;100854.59;;;27.78;38.09
42169;BME280;27838;43.858;25.974;2023-06-14T09:45:15;100864.44;;;27.90;38.73
42169;BME280;27838;43.858;25.974;2023-06-14T09:47:48;100851.81;;;28.05;38.93
42169;BME280;27838;43.858;25.974;2023-06-14T09:50:15;100859.41;;;28.24;37.93
42169;BME280;27838;43.858;25.974;2023-06-14T09:52:43;100853.78;;;28.27;36.77
42169;BME280;27838;43.858;25.974;2023-06-14T09:55:14;100851.13;;;28.27;35.88
42169;BME280;27838;43.858;25.974;2023-06-14T09:57:44;100847.69;;;28.25;36.48
42169;BME280;27838;43.858;25.974;2023-06-14T10:00:13;100845.75;;;28.27;36.34
42169;BME280;27838;43.858;25.974;2023-06-14T10:02:42;100840.69;;;28.35;36.67
42169;BME280;27838;43.858;25.974;2023-06-14T10:05:15;100836.06;;;28.37;36.51
42169;BME280;27838;43.858;25.974;2023-06-14T10:07:51;100842.16;;;28.52;37.01
42169;BME280;27838;43.858;25.974;2023-06-14T10:10:19;100850.16;;;28.65;36.76
42169;BME280;27838;43.858;25.974;2023-06-14T10:12:46;100836.56;;;28.79;36.20
42169;BME280;27838;43.858;25.974;2023-06-14T10:15:42;100844.31;;;28.95;36.14
42169;BME280;27838;43.858;25.974;2023-06-14T10:18:28;100841.28;;;29.00;35.79
42169;BME280;27838;43.858;25.974;2023-06-14T10:23:44;100828.66;;;29.13;35.55
42169;BME280;27838;43.858;25.974;2023-06-14T10:26:23;100834.03;;;29.13;34.58
42169;BME280;27838;43.858;25.974;2023-06-14T10:29:01;100827.88;;;29.00;34.13
42169;BME280;27838;43.858;25.974;2023-06-14T10:31:44;100823.44;;;28.88;34.11
42169;BME280;27838;43.858;25.974;2023-06-14T10:34:12;100830.75;;;28.86;34.46
42169;BME280;27838;43.858;25.974;2023-06-14T10:39:26;100837.66;;;29.12;34.53
42169;BME280;27838;43.858;25.974;2023-06-14T10:41:54;100828.50;;;29.04;33.61
42169;BME280;27838;43.858;25.974;2023-06-14T10:46:55;100825.78;;;28.92;34.13
42169;BME280;27838;43.858;25.974;2023-06-14T10:49:40;100830.06;;;28.95;34.08
42169;BME280;27838;43.858;25.974;2023-06-14T10:52:09;100832.63;;;28.96;34.08
42169;BME280;27838;43.858;25.974;2023-06-14T10:55:02;100834.72;;;29.04;33.96
42169;BME280;27838;43.858;25.974;2023-06-14T10:57:31;100833.63;;;29.07;33.97
42169;BME280;27838;43.858;25.974;2023-06-14T10:59:59;100832.53;;;29.09;34.41
42169;BME280;27838;43.858;25.974;2023-06-14T11:02:50;100836.94;;;29.10;34.34
42169;BME280;27838;43.858;25.974;2023-06-14T11:05:24;100830.28;;;29.16;34.57
42169;BME280;27838;43.858;25.974;2023-06-14T11:08:01;100820.72;;;29.12;34.89
42169;BME280;27838;43.858;25.974;2023-06-14T11:10:43;100827.66;;;29.03;34.81
42169;BME280;27838;43.858;25.974;2023-06-14T11:13:11;100828.50;;;29.04;34.76
42169;BME280;27838;43.858;25.974;2023-06-14T11:15:39;100812.78;;;29.10;35.31
42169;BME280;27838;43.858;25.974;2023-06-14T11:18:09;100818.84;;;29.25;34.99
42169;BME280;27838;43.858;25.974;2023-06-14T11:20:36;100818.09;;;29.23;34.83
42169;BME280;27838;43.858;25.974;2023-06-14T11:23:04;100813.47;;;29.25;34.52
42169;BME280;27838;43.858;25.974;2023-06-14T11:25:30;100817.72;;;29.16;34.49
42169;BME280;27838;43.858;25.974;2023-06-14T11:27:57;100820.41;;;29.16;34.77
42169;BME280;27838;43.858;25.974;2023-06-14T11:30:24;100817.72;;;29.16;35.21
42169;BME280;27838;43.858;25.974;2023-06-14T11:32:52;100817.25;;;29.23;35.04
42169;BME280;27838;43.858;25.974;2023-06-14T11:35:23;100812.50;;;29.26;35.21
42169;BME280;27838;43.858;25.974;2023-06-14T11:37:54;100810.44;;;29.41;35.11
42169;BME280;27838;43.858;25.974;2023-06-14T11:40:24;100810.94;;;29.58;35.09
42169;BME280;27838;43.858;25.974;2023-06-14T11:42:58;100811.94;;;29.68;34.41
42169;BME280;27838;43.858;25.974;2023-06-14T11:45:26;100808.41;;;29.79;34.62
42169;BME280;27838;43.858;25.974;2023-06-14T11:47:55;100807.69;;;29.77;34.68
42169;BME280;27838;43.858;25.974;2023-06-14T11:50:22;100794.84;;;29.69;34.47
42169;BME280;27838;43.858;25.974;2023-06-14T11:52:56;100799.50;;;29.78;34.45
42169;BME280;27838;43.858;25.974;2023-06-14T11:55:23;100794.63;;;29.83;34.53
42169;BME280;27838;43.858;25.974;2023-06-14T11:57:50;100794.13;;;29.89;33.84
42169;BME280;27838;43.858;25.974;2023-06-14T12:00:17;100791.44;;;29.78;33.86
42169;BME280;27838;43.858;25.974;2023-06-14T12:02:54;100794.34;;;29.75;34.40
42169;BME280;27838;43.858;25.974;2023-06-14T12:05:21;100791.56;;;29.77;34.50
42169;BME280;27838;43.858;25.974;2023-06-14T12:07:49;100786.69;;;29.82;34.24
42169;BME280;27838;43.858;25.974;2023-06-14T12:10:19;100796.94;;;29.77;34.04
42169;BME280;27838;43.858;25.974;2023-06-14T12:12:45;100778.72;;;29.58;34.22
42169;BME280;27838;43.858;25.974;2023-06-14T12:15:12;100789.09;;;29.51;34.63
42169;BME280;27838;43.858;25.974;2023-06-14T12:17:39;100785.91;;;29.46;34.71
42169;BME280;27838;43.858;25.974;2023-06-14T12:20:12;100785.53;;;29.39;34.75
42169;BME280;27838;43.858;25.974;2023-06-14T12:22:55;100782.38;;;29.34;34.98
42169;BME280;27838;43.858;25.974;2023-06-14T12:25:36;100776.38;;;29.30;34.95
42169;BME280;27838;43.858;25.974;2023-06-14T12:28:09;100775.53;;;29.30;35.11
42169;BME280;27838;43.858;25.974;2023-06-14T12:30:37;100771.25;;;29.27;35.16
42169;BME280;27838;43.858;25.974;2023-06-14T12:33:04;100772.09;;;29.28;35.36
42169;BME280;27838;43.858;25.974;2023-06-14T12:35:31;100766.13;;;29.24;35.04
42169;BME280;27838;43.858;25.974;2023-06-14T12:37:58;100762.09;;;29.18;35.40
42169;BME280;27838;43.858;25.974;2023-06-14T12:40:24;100755.22;;;29.14;35.59
42169;BME280;27838;43.858;25.974;2023-06-14T12:42:51;100764.06;;;29.16;35.74
42169;BME280;27838;43.858;25.974;2023-06-14T12:45:18;100754.22;;;29.04;35.63
42169;BME280;27838;43.858;25.974;2023-06-14T12:47:44;100764.84;;;29.06;35.95
42169;BME280;27838;43.858;25.974;2023-06-14T12:50:11;100763.97;;;29.05;35.96
42169;BME280;27838;43.858;25.974;2023-06-14T12:52:37;100764.84;;;29.06;36.42
42169;BME280;27838;43.858;25.974;2023-06-14T12:55:04;100763.63;;;29.10;36.49